sensor_id;sensor_type;location;lat;lon;timestamp;temperature;humidity
53073;DHT22;38955;48.916;2.336;2023-08-06T00:00:43;15.70;99.90
53073;DHT22;38955;48.916;2.336;2023-08-06T00:02:45;15.70;99.90
53073;DHT22;38955;48.916;2.336;2023-08-06T00:04:48;15.70;99.90
53073;DHT22;38955;48.916;2.336;2023-08-06T00:06:51;15.80;99.90
53073;DHT22;38955;48.916;2.336;2023-08-06T00:08:53;15.80;99.90
53073;DHT22;38955;48.916;2.336;2023-08-06T00:10:56;15.70;99.90
53073;DHT22;38955;48.916;2.336;2023-08-06T00:12:59;15.70;99.90
53073;DHT22;38955;48.916;2.336;2023-08-06T00:15:01;15.70;99.90
53073;DHT22;38955;48.916;2.336;2023-08-06T00:17:04;15.70;99.90
53073;DHT22;38955;48.916;2.336;2023-08-06T00:19:06;15.80;99.90
53073;DHT22;38955;48.916;2.336;2023-08-06T00:21:09;15.70;99.90
53073;DHT22;38955;48.916;2.336;2023-08-06T00:23:12;15.70;99.90
53073;DHT22;38955;48.916;2.336;2023-08-06T00:25:14;15.70;99.90
53073;DHT22;38955;48.916;2.336;2023-08-06T00:27:16;15.70;99.90
53073;DHT22;38955;48.916;2.336;2023-08-06T00:29:18;15.70;99.90
53073;DHT22;38955;48.916;2.336;2023-08-06T00:31:20;15.70;99.90
53073;DHT22;38955;48.916;2.336;2023-08-06T00:33:22;15.70;99.90
53073;DHT22;38955;48.916;2.336;2023-08-06T00:35:25;15.70;99.90
53073;DHT22;38955;48.916;2.336;2023-08-06T00:37:27;15.60;99.90
53073;DHT22;38955;48.916;2.336;2023-08-06T00:39:30;15.70;99.90
53073;DHT22;38955;48.916;2.336;2023-08-06T00:41:32;15.60;99.90
53073;DHT22;38955;48.916;2.336;2023-08-06T00:43:34;15.60;99.90
53073;DHT22;38955;48.916;2.336;2023-08-06T00:45:37;15.60;99.90
53073;DHT22;38955;48.916;2.336;2023-08-06T00:47:39;15.50;99.90
53073;DHT22;38955;48.916;2.336;2023-08-06T00:49:42;15.60;99.90
53073;DHT22;38955;48.916;2.336;2023-08-06T00:51:45;15.60;99.90
53073;DHT22;38955;48.916;2.336;2023-08-06T00:53:47;15.50;99.90
53073;DHT22;38955;48.916;2.336;2023-08-06T00:55:52;15.50;99.90
53073;DHT22;38955;48.916;2.336;2023-08-06T00:57:55;15.60;99.90
53073;DHT22;38955;48.916;2.336;2023-08-06T00:59:58;15.50;99.90
53073;DHT22;38955;48.916;2.336;2023-08-06T01:02:00;15.50;99.90
53073;DHT22;38955;48.916;2.336;2023-08-06T01:04:02;15.50;99.90
53073;DHT22;38955;48.916;2.336;2023-08-06T01:06:05;15.60;99.90
53073;DHT22;38955;48.916;2.336;2023-08-06T01:08:15;15.60;99.90
53073;DHT22;38955;48.916;2.336;2023-08-06T01:10:26;15.50;99.90
53073;DHT22;38955;48.916;2.336;2023-08-06T01:12:40;15.50;99.90
53073;DHT22;38955;48.916;2.336;2023-08-06T01:14:48;15.50;99.90
53073;DHT22;38955;48.916;2.336;2023-08-06T01:16:54;15.50;99.90
53073;DHT22;38955;48.916;2.336;2023-08-06T01:18:58;15.50;99.90
53073;DHT22;38955;48.916;2.336;2023-08-06T01:21:01;15.40;99.90
53073;DHT22;38955;48.916;2.336;2023-08-06T01:23:04;15.40;99.90
53073;DHT22;38955;48.916;2.336;2023-08-06T01:25:07;15.50;99.90
53073;DHT22;38955;48.916;2.336;2023-08-06T01:27:14;15.50;99.90
53073;DHT22;38955;48.916;2.336;2023-08-06T01:29:23;15.50;99.90
53073;DHT22;38955;48.916;2.336;2023-08-06T01:31:29;15.50;99.90
53073;DHT22;38955;48.916;2.336;2023-08-06T01:33:32;15.50;99.90
53073;DHT22;38955;48.916;2.336;2023-08-06T01:35:39;15.50;99.90
53073;DHT22;38955;48.916;2.336;2023-08-06T01:37:42;15.50;99.90
53073;DHT22;38955;48.916;2.336;2023-08-06T01:39:44;15.50;99.90
53073;DHT22;38955;48.916;2.336;2023-08-06T01:41:46;15.40;99.90
53073;DHT22;38955;48.916;2.336;2023-08-06T01:43:49;15.40;99.90
53073;DHT22;38955;48.916;2.336;2023-08-06T01:45:51;15.40;99.90
53073;DHT22;38955;48.916;2.336;2023-08-06T01:47:53;15.40;99.90
53073;DHT22;38955;48.916;2.336;2023-08-06T01:49:55;15.40;99.90
53073;DHT22;38955;48.916;2.336;2023-08-06T01:51:57;15.40;99.90
53073;DHT22;38955;48.916;2.336;2023-08-06T01:54:01;15.40;99.90
53073;DHT22;38955;48.916;2.336;2023-08-06T01:56:03;15.50;99.90
53073;DHT22;38955;48.916;2.336;2023-08-06T01:58:05;15.40;99.90
53073;DHT22;38955;48.916;2.336;2023-08-06T02:00:08;15.40;99.90
53073;DHT22;38955;48.916;2.336;2023-08-06T02:02:10;15.40;99.90
53073;DHT22;38955;48.916;2.336;2023-08-06T02:04:12;15.30;99.90
53073;DHT22;38955;48.916;2.336;2023-08-06T02:06:14;15.40;99.90
53073;DHT22;38955;48.916;2.336;2023-08-06T02:08:16;15.40;99.90
53073;DHT22;38955;48.916;2.336;2023-08-06T02:10:20;15.40;99.90
53073;DHT22;38955;48.916;2.336;2023-08-06T02:12:22;15.40;99.90
53073;DHT22;38955;48.916;2.336;2023-08-06T02:14:24;15.40;99.90
53073;DHT22;38955;48.916;2.336;2023-08-06T02:16:26;15.30;99.90
53073;DHT22;38955;48.916;2.336;2023-08-06T02:18:28;15.40;99.90
53073;DHT22;38955;48.916;2.336;2023-08-06T02:20:30;15.40;99.90
53073;DHT22;38955;48.916;2.336;2023-08-06T02:22:32;15.40;99.90
53073;DHT22;38955;48.916;2.336;2023-08-06T02:24:35;15.40;99.90
53073;DHT22;38955;48.916;2.336;2023-08-06T02:26:38;15.30;99.90
53073;DHT22;38955;48.916;2.336;2023-08-06T02:28:40;15.40;99.90
53073;DHT22;38955;48.916;2.336;2023-08-06T02:30:49;15.30;99.90
53073;DHT22;38955;48.916;2.336;2023-08-06T02:32:52;15.40;99.90
53073;DHT22;38955;48.916;2.336;2023-08-06T02:34:54;15.30;99.90
53073;DHT22;38955;48.916;2.336;2023-08-06T02:36:56;15.30;99.90
53073;DHT22;38955;48.916;2.336;2023-08-06T02:38:58;15.30;99.90
53073;DHT22;38955;48.916;2.336;2023-08-06T02:41:02;15.30;99.90
53073;DHT22;38955;48.916;2.336;2023-08-06T02:43:05;15.30;99.90
53073;DHT22;38955;48.916;2.336;2023-08-06T02:45:08;15.30;99.90
53073;DHT22;38955;48.916;2.336;2023-08-06T02:47:10;15.20;99.90
53073;DHT22;38955;48.916;2.336;2023-08-06T02:49:12;15.20;99.90
53073;DHT22;38955;48.916;2.336;2023-08-06T02:51:14;15.20;99.90
53073;DHT22;38955;48.916;2.336;2023-08-06T02:53:16;15.20;99.90
53073;DHT22;38955;48.916;2.336;2023-08-06T02:55:18;15.20;99.90
53073;DHT22;38955;48.916;2.336;2023-08-06T02:57:20;15.20;99.90
53073;DHT22;38955;48.916;2.336;2023-08-06T02:59:24;15.20;99.90
53073;DHT22;38955;48.916;2.336;2023-08-06T03:01:26;15.20;99.90
53073;DHT22;38955;48.916;2.336;2023-08-06T03:03:31;15.30;99.90
53073;DHT22;38955;48.916;2.336;2023-08-06T03:05:33;15.20;99.90
53073;DHT22;38955;48.916;2.336;2023-08-06T03:07:35;15.30;99.90
53073;DHT22;38955;48.916;2.336;2023-08-06T03:09:38;15.40;99.90
53073;DHT22;38955;48.916;2.336;2023-08-06T03:11:40;15.40;99.90
53073;DHT22;38955;48.916;2.336;2023-08-06T03:13:43;15.30;99.90
53073;DHT22;38955;48.916;2.336;2023-08-06T03:15:53;15.30;99.90
53073;DHT22;38955;48.916;2.336;2023-08-06T03:17:56;15.30;99.90
53073;DHT22;38955;48.916;2.336;2023-08-06T03:19:58;15.30;99.90
53073;DHT22;38955;48.916;2.336;2023-08-06T03:22:00;15.30;99.90
53073;DHT22;38955;48.916;2.336;2023-08-06T03:24:02;15.40;99.90
53073;DHT22;38955;48.916;2.336;2023-08-06T03:26:05;15.40;99.90
53073;DHT22;38955;48.916;2.336;2023-08-06T03:28:07;15.40;99.90
53073;DHT22;38955;48.916;2.336;2023-08-06T03:30:09;15.30;99.90
53073;DHT22;38955;48.916;2.336;2023-08-06T03:32:14;15.30;99.90
53073;DHT22;38955;48.916;2.336;2023-08-06T03:34:16;15.30;99.90
53073;DHT22;38955;48.916;2.336;2023-08-06T03:36:18;15.30;99.90
53073;DHT22;38955;48.916;2.336;2023-08-06T03:38:19;15.20;99.90
53073;DHT22;38955;48.916;2.336;2023-08-06T03:40:22;15.20;99.90
53073;DHT22;38955;48.916;2.336;2023-08-06T03:42:24;15.30;99.90
53073;DHT22;38955;48.916;2.336;2023-08-06T03:44:26;15.20;99.90
53073;DHT22;38955;48.916;2.336;2023-08-06T03:46:30;15.10;99.90
53073;DHT22;38955;48.916;2.336;2023-08-06T03:48:37;15.10;99.90
53073;DHT22;38955;48.916;2.336;2023-08-06T03:50:39;15.10;99.90
53073;DHT22;38955;48.916;2.336;2023-08-06T03:52:41;15.20;99.90
53073;DHT22;38955;48.916;2.336;2023-08-06T03:54:43;15.10;99.90
53073;DHT22;38955;48.916;2.336;2023-08-06T03:56:45;15.20;99.90
53073;DHT22;38955;48.916;2.336;2023-08-06T03:58:47;15.20;99.90
53073;DHT22;38955;48.916;2.336;2023-08-06T04:00:58;15.20;99.90
53073;DHT22;38955;48.916;2.336;2023-08-06T04:03:00;15.20;99.90
53073;DHT22;38955;48.916;2.336;2023-08-06T04:05:04;15.20;99.90
53073;DHT22;38955;48.916;2.336;2023-08-06T04:07:06;15.30;99.90
53073;DHT22;38955;48.916;2.336;2023-08-06T04:09:08;15.20;99.90
53073;DHT22;38955;48.916;2.336;2023-08-06T04:11:10;15.20;99.90
53073;DHT22;38955;48.916;2.336;2023-08-06T04:13:14;15.20;99.90
53073;DHT22;38955;48.916;2.336;2023-08-06T04:15:16;15.20;99.90
53073;DHT22;38955;48.916;2.336;2023-08-06T04:17:18;15.20;99.90
53073;DHT22;38955;48.916;2.336;2023-08-06T04:19:23;15.20;99.90
53073;DHT22;38955;48.916;2.336;2023-08-06T04:21:27;15.30;99.90
53073;DHT22;38955;48.916;2.336;2023-08-06T04:23:29;15.20;99.90
53073;DHT22;38955;48.916;2.336;2023-08-06T04:25:31;15.20;99.90
53073;DHT22;38955;48.916;2.336;2023-08-06T04:27:33;15.20;99.90
53073;DHT22;38955;48.916;2.336;2023-08-06T04:29:35;15.20;99.90
53073;DHT22;38955;48.916;2.336;2023-08-06T04:31:37;15.30;99.90
53073;DHT22;38955;48.916;2.336;2023-08-06T04:33:39;15.30;99.90
53073;DHT22;38955;48.916;2.336;2023-08-06T04:35:42;15.20;99.90
53073;DHT22;38955;48.916;2.336;2023-08-06T04:37:46;15.20;99.90
53073;DHT22;38955;48.916;2.336;2023-08-06T04:39:48;15.20;99.90
53073;DHT22;38955;48.916;2.336;2023-08-06T04:41:50;15.20;99.90
53073;DHT22;38955;48.916;2.336;2023-08-06T04:43:53;15.20;99.90
53073;DHT22;38955;48.916;2.336;2023-08-06T04:45:55;15.20;99.90
53073;DHT22;38955;48.916;2.336;2023-08-06T04:47:58;15.20;99.90
53073;DHT22;38955;48.916;2.336;2023-08-06T04:50:00;15.20;99.90
53073;DHT22;38955;48.916;2.336;2023-08-06T04:52:03;15.20;99.90
53073;DHT22;38955;48.916;2.336;2023-08-06T04:54:07;15.20;99.90
53073;DHT22;38955;48.916;2.336;2023-08-06T04:56:09;15.20;99.90
53073;DHT22;38955;48.916;2.336;2023-08-06T04:58:13;15.30;99.90
53073;DHT22;38955;48.916;2.336;2023-08-06T05:00:16;15.20;99.90
53073;DHT22;38955;48.916;2.336;2023-08-06T05:02:18;15.30;99.90
53073;DHT22;38955;48.916;2.336;2023-08-06T05:04:22;15.20;99.90
53073;DHT22;38955;48.916;2.336;2023-08-06T05:06:24;15.20;99.90
53073;DHT22;38955;48.916;2.336;2023-08-06T05:08:27;15.20;99.90
53073;DHT22;38955;48.916;2.336;2023-08-06T05:10:30;15.20;99.90
53073;DHT22;38955;48.916;2.336;2023-08-06T05:12:32;15.20;99.90
53073;DHT22;38955;48.916;2.336;2023-08-06T05:14:34;15.20;99.90
53073;DHT22;38955;48.916;2.336;2023-08-06T05:16:36;15.20;99.90
53073;DHT22;38955;48.916;2.336;2023-08-06T05:18:38;15.30;99.90
53073;DHT22;38955;48.916;2.336;2023-08-06T05:20:41;15.20;99.90
53073;DHT22;38955;48.916;2.336;2023-08-06T05:22:44;15.20;99.90
53073;DHT22;38955;48.916;2.336;2023-08-06T05:24:46;15.20;99.90
53073;DHT22;38955;48.916;2.336;2023-08-06T05:26:49;15.30;99.90
53073;DHT22;38955;48.916;2.336;2023-08-06T05:28:51;15.30;99.90
53073;DHT22;38955;48.916;2.336;2023-08-06T05:30:53;15.30;99.90
53073;DHT22;38955;48.916;2.336;2023-08-06T05:32:56;15.30;99.90
53073;DHT22;38955;48.916;2.336;2023-08-06T05:34:58;15.30;99.90
53073;DHT22;38955;48.916;2.336;2023-08-06T05:37:00;15.30;99.90
53073;DHT22;38955;48.916;2.336;2023-08-06T05:39:02;15.40;99.90
53073;DHT22;38955;48.916;2.336;2023-08-06T05:41:04;15.40;99.90
53073;DHT22;38955;48.916;2.336;2023-08-06T05:43:08;15.40;99.90
53073;DHT22;38955;48.916;2.336;2023-08-06T05:45:10;15.30;99.90
53073;DHT22;38955;48.916;2.336;2023-08-06T05:47:12;15.40;99.90
53073;DHT22;38955;48.916;2.336;2023-08-06T05:49:14;15.40;99.90
53073;DHT22;38955;48.916;2.336;2023-08-06T05:51:16;15.40;99.90
53073;DHT22;38955;48.916;2.336;2023-08-06T05:53:18;15.40;99.90
53073;DHT22;38955;48.916;2.336;2023-08-06T05:55:20;15.30;99.90
53073;DHT22;38955;48.916;2.336;2023-08-06T05:57:22;15.30;99.90
53073;DHT22;38955;48.916;2.336;2023-08-06T05:59:26;15.40;99.90
53073;DHT22;38955;48.916;2.336;2023-08-06T06:01:28;15.40;99.90
53073;DHT22;38955;48.916;2.336;2023-08-06T06:03:30;15.30;99.90
53073;DHT22;38955;48.916;2.336;2023-08-06T06:05:32;15.40;99.90
53073;DHT22;38955;48.916;2.336;2023-08-06T06:07:34;15.40;99.90
53073;DHT22;38955;48.916;2.336;2023-08-06T06:09:36;15.50;99.90
53073;DHT22;38955;48.916;2.336;2023-08-06T06:11:38;15.50;99.90
53073;DHT22;38955;48.916;2.336;2023-08-06T06:13:41;15.50;99.90
53073;DHT22;38955;48.916;2.336;2023-08-06T06:15:46;15.60;99.90
53073;DHT22;38955;48.916;2.336;2023-08-06T06:17:48;15.70;99.90
53073;DHT22;38955;48.916;2.336;2023-08-06T06:19:51;15.70;99.90
53073;DHT22;38955;48.916;2.336;2023-08-06T06:21:53;15.70;99.90
53073;DHT22;38955;48.916;2.336;2023-08-06T06:23:56;15.80;99.90
53073;DHT22;38955;48.916;2.336;2023-08-06T06:26:00;15.80;99.90
53073;DHT22;38955;48.916;2.336;2023-08-06T06:28:02;15.90;99.90
53073;DHT22;38955;48.916;2.336;2023-08-06T06:30:05;15.80;99.90
53073;DHT22;38955;48.916;2.336;2023-08-06T06:32:08;15.80;99.90
53073;DHT22;38955;48.916;2.336;2023-08-06T06:34:10;15.70;99.90
53073;DHT22;38955;48.916;2.336;2023-08-06T06:36:12;15.80;99.90
53073;DHT22;38955;48.916;2.336;2023-08-06T06:38:14;15.70;99.90
53073;DHT22;38955;48.916;2.336;2023-08-06T06:40:17;15.70;99.90
53073;DHT22;38955;48.916;2.336;2023-08-06T06:42:19;15.70;99.90
53073;DHT22;38955;48.916;2.336;2023-08-06T06:44:21;15.70;99.90
53073;DHT22;38955;48.916;2.336;2023-08-06T06:46:23;15.80;99.90
53073;DHT22;38955;48.916;2.336;2023-08-06T06:48:27;15.80;99.90
53073;DHT22;38955;48.916;2.336;2023-08-06T06:50:30;16.00;99.90
53073;DHT22;38955;48.916;2.336;2023-08-06T06:52:32;16.00;99.90
53073;DHT22;38955;48.916;2.336;2023-08-06T06:54:34;16.10;99.90
53073;DHT22;38955;48.916;2.336;2023-08-06T06:56:36;16.10;99.90
53073;DHT22;38955;48.916;2.336;2023-08-06T06:58:38;16.20;99.90
53073;DHT22;38955;48.916;2.336;2023-08-06T07:00:42;16.20;99.90
53073;DHT22;38955;48.916;2.336;2023-08-06T07:02:44;16.10;99.90
53073;DHT22;38955;48.916;2.336;2023-08-06T07:04:49;16.10;99.90
53073;DHT22;38955;48.916;2.336;2023-08-06T07:06:51;16.10;99.90
53073;DHT22;38955;48.916;2.336;2023-08-06T07:08:54;16.00;99.90
53073;DHT22;38955;48.916;2.336;2023-08-06T07:11:01;16.00;99.90
53073;DHT22;38955;48.916;2.336;2023-08-06T07:13:03;16.00;99.90
53073;DHT22;38955;48.916;2.336;2023-08-06T07:15:06;16.00;99.90
53073;DHT22;38955;48.916;2.336;2023-08-06T07:17:09;16.00;99.90
53073;DHT22;38955;48.916;2.336;2023-08-06T07:19:11;16.00;99.90
53073;DHT22;38955;48.916;2.336;2023-08-06T07:21:14;16.10;99.90
53073;DHT22;38955;48.916;2.336;2023-08-06T07:23:17;16.10;99.90
53073;DHT22;38955;48.916;2.336;2023-08-06T07:25:19;16.20;99.90
53073;DHT22;38955;48.916;2.336;2023-08-06T07:27:21;16.40;99.90
53073;DHT22;38955;48.916;2.336;2023-08-06T07:29:23;16.40;99.90
53073;DHT22;38955;48.916;2.336;2023-08-06T07:31:25;16.40;99.90
53073;DHT22;38955;48.916;2.336;2023-08-06T07:33:27;16.40;99.90
53073;DHT22;38955;48.916;2.336;2023-08-06T07:35:29;16.50;99.90
53073;DHT22;38955;48.916;2.336;2023-08-06T07:37:33;16.50;99.90
53073;DHT22;38955;48.916;2.336;2023-08-06T07:39:35;16.60;99.90
53073;DHT22;38955;48.916;2.336;2023-08-06T07:41:39;16.70;99.90
53073;DHT22;38955;48.916;2.336;2023-08-06T07:43:43;16.80;99.90
53073;DHT22;38955;48.916;2.336;2023-08-06T07:45:45;16.80;99.90
53073;DHT22;38955;48.916;2.336;2023-08-06T07:47:47;16.80;99.90
53073;DHT22;38955;48.916;2.336;2023-08-06T07:49:49;16.80;99.90
53073;DHT22;38955;48.916;2.336;2023-08-06T07:51:52;16.70;99.90
53073;DHT22;38955;48.916;2.336;2023-08-06T07:53:56;16.80;99.90
53073;DHT22;38955;48.916;2.336;2023-08-06T07:55:58;16.90;99.90
53073;DHT22;38955;48.916;2.336;2023-08-06T07:58:01;17.00;99.60
53073;DHT22;38955;48.916;2.336;2023-08-06T08:00:04;16.90;98.70
53073;DHT22;38955;48.916;2.336;2023-08-06T08:02:06;16.80;98.70
53073;DHT22;38955;48.916;2.336;2023-08-06T08:04:08;16.70;98.40
53073;DHT22;38955;48.916;2.336;2023-08-06T08:06:11;16.80;98.90
53073;DHT22;38955;48.916;2.336;2023-08-06T08:08:12;16.80;98.50
53073;DHT22;38955;48.916;2.336;2023-08-06T08:10:16;16.90;98.30
53073;DHT22;38955;48.916;2.336;2023-08-06T08:12:18;16.90;98.40
53073;DHT22;38955;48.916;2.336;2023-08-06T08:14:20;17.00;98.20
53073;DHT22;38955;48.916;2.336;2023-08-06T08:16:22;17.00;98.70
53073;DHT22;38955;48.916;2.336;2023-08-06T08:18:24;17.20;98.60
53073;DHT22;38955;48.916;2.336;2023-08-06T08:20:27;17.40;98.80
53073;DHT22;38955;48.916;2.336;2023-08-06T08:22:36;17.50;98.80
53073;DHT22;38955;48.916;2.336;2023-08-06T08:24:38;17.60;97.70
53073;DHT22;38955;48.916;2.336;2023-08-06T08:26:41;17.60;97.50
53073;DHT22;38955;48.916;2.336;2023-08-06T08:28:43;17.60;97.80
53073;DHT22;38955;48.916;2.336;2023-08-06T08:30:45;17.70;98.30
53073;DHT22;38955;48.916;2.336;2023-08-06T08:32:47;17.90;98.30
53073;DHT22;38955;48.916;2.336;2023-08-06T08:34:49;18.00;98.40
53073;DHT22;38955;48.916;2.336;2023-08-06T08:36:51;18.10;97.90
53073;DHT22;38955;48.916;2.336;2023-08-06T08:38:53;18.20;97.80
53073;DHT22;38955;48.916;2.336;2023-08-06T08:40:56;18.10;97.30
53073;DHT22;38955;48.916;2.336;2023-08-06T08:43:00;18.00;97.10
53073;DHT22;38955;48.916;2.336;2023-08-06T08:45:02;17.70;96.40
53073;DHT22;38955;48.916;2.336;2023-08-06T08:47:06;17.70;96.00
53073;DHT22;38955;48.916;2.336;2023-08-06T08:49:08;17.70;96.60
53073;DHT22;38955;48.916;2.336;2023-08-06T08:51:12;17.70;96.20
53073;DHT22;38955;48.916;2.336;2023-08-06T08:53:16;17.90;96.30
53073;DHT22;38955;48.916;2.336;2023-08-06T08:55:19;18.00;96.80
53073;DHT22;38955;48.916;2.336;2023-08-06T08:57:23;18.20;97.00
53073;DHT22;38955;48.916;2.336;2023-08-06T08:59:27;18.10;95.50
53073;DHT22;38955;48.916;2.336;2023-08-06T09:01:29;18.10;95.90
53073;DHT22;38955;48.916;2.336;2023-08-06T09:03:32;18.10;96.00
53073;DHT22;38955;48.916;2.336;2023-08-06T09:05:35;18.20;96.00
53073;DHT22;38955;48.916;2.336;2023-08-06T09:07:42;18.10;96.00
53073;DHT22;38955;48.916;2.336;2023-08-06T09:09:49;18.10;96.90
53073;DHT22;38955;48.916;2.336;2023-08-06T09:11:51;18.10;96.00
53073;DHT22;38955;48.916;2.336;2023-08-06T09:13:55;18.30;96.30
53073;DHT22;38955;48.916;2.336;2023-08-06T09:15:59;18.20;95.60
53073;DHT22;38955;48.916;2.336;2023-08-06T09:18:09;18.30;95.90
53073;DHT22;38955;48.916;2.336;2023-08-06T09:20:13;18.30;95.30
53073;DHT22;38955;48.916;2.336;2023-08-06T09:22:16;18.40;95.50
53073;DHT22;38955;48.916;2.336;2023-08-06T09:24:18;18.40;95.80
53073;DHT22;38955;48.916;2.336;2023-08-06T09:26:20;18.30;95.90
53073;DHT22;38955;48.916;2.336;2023-08-06T09:28:22;18.50;95.00
53073;DHT22;38955;48.916;2.336;2023-08-06T09:30:29;18.50;94.50
53073;DHT22;38955;48.916;2.336;2023-08-06T09:32:46;18.40;94.40
53073;DHT22;38955;48.916;2.336;2023-08-06T09:34:56;18.60;93.20
53073;DHT22;38955;48.916;2.336;2023-08-06T09:36:58;18.70;92.90
53073;DHT22;38955;48.916;2.336;2023-08-06T09:39:01;18.80;92.30
53073;DHT22;38955;48.916;2.336;2023-08-06T09:41:26;18.90;93.00
53073;DHT22;38955;48.916;2.336;2023-08-06T09:43:29;18.90;94.40
53073;DHT22;38955;48.916;2.336;2023-08-06T09:45:32;18.80;94.30
53073;DHT22;38955;48.916;2.336;2023-08-06T09:47:36;18.80;94.90
53073;DHT22;38955;48.916;2.336;2023-08-06T09:49:43;18.90;94.80
53073;DHT22;38955;48.916;2.336;2023-08-06T09:51:47;19.00;94.70
53073;DHT22;38955;48.916;2.336;2023-08-06T09:53:53;19.00;94.00
53073;DHT22;38955;48.916;2.336;2023-08-06T09:55:56;19.10;94.30
53073;DHT22;38955;48.916;2.336;2023-08-06T09:57:59;19.20;94.30
53073;DHT22;38955;48.916;2.336;2023-08-06T10:00:01;19.30;93.50
53073;DHT22;38955;48.916;2.336;2023-08-06T10:02:12;19.30;92.70
53073;DHT22;38955;48.916;2.336;2023-08-06T10:04:15;19.00;92.40
53073;DHT22;38955;48.916;2.336;2023-08-06T10:06:28;19.10;92.90
53073;DHT22;38955;48.916;2.336;2023-08-06T10:08:30;19.10;92.10
53073;DHT22;38955;48.916;2.336;2023-08-06T10:10:32;18.90;92.30
53073;DHT22;38955;48.916;2.336;2023-08-06T10:12:38;19.00;92.80
53073;DHT22;38955;48.916;2.336;2023-08-06T10:14:42;19.10;93.10
53073;DHT22;38955;48.916;2.336;2023-08-06T10:16:47;19.00;93.00
53073;DHT22;38955;48.916;2.336;2023-08-06T10:18:49;19.30;93.10
53073;DHT22;38955;48.916;2.336;2023-08-06T10:20:52;19.20;92.40
53073;DHT22;38955;48.916;2.336;2023-08-06T10:23:04;19.40;92.50
53073;DHT22;38955;48.916;2.336;2023-08-06T10:25:07;19.30;91.40
53073;DHT22;38955;48.916;2.336;2023-08-06T10:27:09;19.20;92.10
53073;DHT22;38955;48.916;2.336;2023-08-06T10:29:36;19.30;92.70
53073;DHT22;38955;48.916;2.336;2023-08-06T10:31:54;19.30;92.90
53073;DHT22;38955;48.916;2.336;2023-08-06T10:33:59;19.20;92.70
53073;DHT22;38955;48.916;2.336;2023-08-06T10:36:01;19.10;92.70
53073;DHT22;38955;48.916;2.336;2023-08-06T10:38:10;19.10;93.00
53073;DHT22;38955;48.916;2.336;2023-08-06T10:40:20;19.10;92.70
53073;DHT22;38955;48.916;2.336;2023-08-06T10:42:27;19.10;92.60
53073;DHT22;38955;48.916;2.336;2023-08-06T10:44:29;19.10;91.60
53073;DHT22;38955;48.916;2.336;2023-08-06T10:46:34;19.20;91.90
53073;DHT22;38955;48.916;2.336;2023-08-06T10:48:37;19.10;92.80
53073;DHT22;38955;48.916;2.336;2023-08-06T10:50:39;19.10;92.00
53073;DHT22;38955;48.916;2.336;2023-08-06T10:52:42;19.20;92.00
53073;DHT22;38955;48.916;2.336;2023-08-06T10:54:46;19.00;92.00
53073;DHT22;38955;48.916;2.336;2023-08-06T10:56:48;19.10;92.00
53073;DHT22;38955;48.916;2.336;2023-08-06T10:58:53;19.20;92.30
53073;DHT22;38955;48.916;2.336;2023-08-06T11:00:56;19.40;92.70
53073;DHT22;38955;48.916;2.336;2023-08-06T11:02:59;19.50;92.30
53073;DHT22;38955;48.916;2.336;2023-08-06T11:05:06;19.60;91.60
53073;DHT22;38955;48.916;2.336;2023-08-06T11:07:08;19.70;91.70
53073;DHT22;38955;48.916;2.336;2023-08-06T11:09:10;19.60;91.60
53073;DHT22;38955;48.916;2.336;2023-08-06T11:11:15;19.80;92.00
53073;DHT22;38955;48.916;2.336;2023-08-06T11:13:17;19.80;91.50
53073;DHT22;38955;48.916;2.336;2023-08-06T11:15:22;19.90;91.40
53073;DHT22;38955;48.916;2.336;2023-08-06T11:17:27;20.10;91.50
53073;DHT22;38955;48.916;2.336;2023-08-06T11:19:29;20.20;91.20
53073;DHT22;38955;48.916;2.336;2023-08-06T11:21:31;20.10;90.60
53073;DHT22;38955;48.916;2.336;2023-08-06T11:23:34;20.00;90.40
53073;DHT22;38955;48.916;2.336;2023-08-06T11:25:36;19.80;90.20
53073;DHT22;38955;48.916;2.336;2023-08-06T11:27:41;19.50;90.60
53073;DHT22;38955;48.916;2.336;2023-08-06T11:29:43;19.30;91.70
53073;DHT22;38955;48.916;2.336;2023-08-06T11:31:45;19.20;91.80
53073;DHT22;38955;48.916;2.336;2023-08-06T11:33:50;19.20;91.40
53073;DHT22;38955;48.916;2.336;2023-08-06T11:35:52;19.20;91.70
53073;DHT22;38955;48.916;2.336;2023-08-06T11:37:55;19.30;91.40
53073;DHT22;38955;48.916;2.336;2023-08-06T11:39:57;19.30;91.80
53073;DHT22;38955;48.916;2.336;2023-08-06T11:42:03;19.50;91.90
53073;DHT22;38955;48.916;2.336;2023-08-06T11:44:10;19.40;91.90
53073;DHT22;38955;48.916;2.336;2023-08-06T11:46:17;19.50;92.00
53073;DHT22;38955;48.916;2.336;2023-08-06T11:48:20;19.30;91.60
53073;DHT22;38955;48.916;2.336;2023-08-06T11:50:23;19.30;92.20
53073;DHT22;38955;48.916;2.336;2023-08-06T11:52:26;19.40;92.20
53073;DHT22;38955;48.916;2.336;2023-08-06T11:54:31;19.60;92.40
53073;DHT22;38955;48.916;2.336;2023-08-06T11:56:35;19.80;92.30
53073;DHT22;38955;48.916;2.336;2023-08-06T11:58:38;19.70;91.30
53073;DHT22;38955;48.916;2.336;2023-08-06T12:00:43;19.70;91.50
53073;DHT22;38955;48.916;2.336;2023-08-06T12:02:46;19.80;91.90
53073;DHT22;38955;48.916;2.336;2023-08-06T12:05:02;19.80;91.60
53073;DHT22;38955;48.916;2.336;2023-08-06T12:07:06;19.70;91.70
53073;DHT22;38955;48.916;2.336;2023-08-06T12:09:11;19.70;91.40
53073;DHT22;38955;48.916;2.336;2023-08-06T12:11:13;19.80;91.40
53073;DHT22;38955;48.916;2.336;2023-08-06T12:13:15;19.80;90.90
53073;DHT22;38955;48.916;2.336;2023-08-06T12:15:17;19.70;91.00
53073;DHT22;38955;48.916;2.336;2023-08-06T12:17:21;19.80;91.40
53073;DHT22;38955;48.916;2.336;2023-08-06T12:19:23;19.80;91.30
53073;DHT22;38955;48.916;2.336;2023-08-06T12:21:25;19.90;91.30
53073;DHT22;38955;48.916;2.336;2023-08-06T12:23:28;19.80;91.20
53073;DHT22;38955;48.916;2.336;2023-08-06T12:25:30;19.60;90.80
53073;DHT22;38955;48.916;2.336;2023-08-06T12:27:32;19.50;91.50
53073;DHT22;38955;48.916;2.336;2023-08-06T12:29:34;19.50;91.00
53073;DHT22;38955;48.916;2.336;2023-08-06T12:31:37;19.40;91.40
53073;DHT22;38955;48.916;2.336;2023-08-06T12:33:40;19.50;91.00
53073;DHT22;38955;48.916;2.336;2023-08-06T12:35:42;19.50;91.40
53073;DHT22;38955;48.916;2.336;2023-08-06T12:37:44;19.50;91.50
53073;DHT22;38955;48.916;2.336;2023-08-06T12:39:47;19.60;91.00
53073;DHT22;38955;48.916;2.336;2023-08-06T12:41:49;19.60;90.90
53073;DHT22;38955;48.916;2.336;2023-08-06T12:43:51;19.60;90.70
53073;DHT22;38955;48.916;2.336;2023-08-06T12:45:53;19.80;90.80
53073;DHT22;38955;48.916;2.336;2023-08-06T12:47:56;20.00;91.00
53073;DHT22;38955;48.916;2.336;2023-08-06T12:49:59;20.00;90.20
53073;DHT22;38955;48.916;2.336;2023-08-06T12:52:01;20.00;90.70
53073;DHT22;38955;48.916;2.336;2023-08-06T12:54:04;20.10;90.90
53073;DHT22;38955;48.916;2.336;2023-08-06T12:56:06;20.20;90.90
53073;DHT22;38955;48.916;2.336;2023-08-06T12:58:08;20.10;90.90